Ithaca, New York
Current Conditions -  °F | °C
As of 5:56 PM on Tuesday 27 Jan 2015 (Local Time) from KITH Reporting Station
Snow Showers Snow Showers  
Wind Chill: -5°   Ceiling: Unl
Heat Index: 11°   Visibility: 10mi
Dew Point:   Wind: 14mph
Humidity: 76%   Direction: 330°NNW
Pressure: 29.94"   Gusts: 21mph
Location:  42.44°N, 76.49°W
Report Text: KITH 272256Z 33012G18KT 10SM -SHSN SCT020 M12/M15 A2994 RMK AO2 T11161150 P0000 SLP159
Loading
Personal Weather Stations






























Interactive Weather Map New forecast layout! Learn more

10-Day Weather Forecast

Advertisements
Track Severe Weather on mobile